sensor_id;sensor_type;location;lat;lon;timestamp;pressure;altitude;pressure_sealevel;temperature;humidity
63097;BME280;49185;42.320;23.198;2022-07-15T00:00:38;94818.63;;;13.90;81.85
63097;BME280;49185;42.320;23.198;2022-07-15T00:03:04;94820.97;;;13.88;82.25
63097;BME280;49185;42.320;23.198;2022-07-15T00:05:30;94809.47;;;13.84;81.83
63097;BME280;49185;42.320;23.198;2022-07-15T00:07:55;94816.44;;;13.82;82.65
63097;BME280;49185;42.320;23.198;2022-07-15T00:10:21;94812.88;;;13.88;82.44
63097;BME280;49185;42.320;23.198;2022-07-15T00:12:56;94821.84;;;13.82;83.16
63097;BME280;49185;42.320;23.198;2022-07-15T00:15:24;94809.59;;;13.77;82.89
63097;BME280;49185;42.320;23.198;2022-07-15T00:17:51;94809.59;;;13.77;83.15
63097;BME280;49185;42.320;23.198;2022-07-15T00:20:18;94817.00;;;13.73;83.07
63097;BME280;49185;42.320;23.198;2022-07-15T00:22:44;94820.97;;;13.65;83.50
63097;BME280;49185;42.320;23.198;2022-07-15T00:25:10;94811.69;;;13.66;83.58
63097;BME280;49185;42.320;23.198;2022-07-15T00:27:48;94807.00;;;13.70;82.90
63097;BME280;49185;42.320;23.198;2022-07-15T00:30:14;94821.03;;;13.62;83.46
63097;BME280;49185;42.320;23.198;2022-07-15T00:32:39;94819.38;;;13.44;84.50
63097;BME280;49185;42.320;23.198;2022-07-15T00:35:05;94825.75;;;13.31;85.16
63097;BME280;49185;42.320;23.198;2022-07-15T00:37:31;94814.41;;;13.16;85.89
63097;BME280;49185;42.320;23.198;2022-07-15T00:39:56;94825.97;;;13.16;86.81
63097;BME280;49185;42.320;23.198;2022-07-15T00:42:21;94826.38;;;13.15;86.22
63097;BME280;49185;42.320;23.198;2022-07-15T00:44:47;94825.22;;;13.16;86.65
63097;BME280;49185;42.320;23.198;2022-07-15T00:47:12;94834.59;;;13.04;87.87
63097;BME280;49185;42.320;23.198;2022-07-15T00:49:38;94827.69;;;13.03;89.21
63097;BME280;49185;42.320;23.198;2022-07-15T00:52:04;94822.56;;;12.82;90.38
63097;BME280;49185;42.320;23.198;2022-07-15T00:54:30;94830.22;;;12.87;91.39
63097;BME280;49185;42.320;23.198;2022-07-15T00:56:56;94821.28;;;12.60;94.20
63097;BME280;49185;42.320;23.198;2022-07-15T00:59:32;94819.22;;;12.40;96.49
63097;BME280;49185;42.320;23.198;2022-07-15T01:01:58;94814.16;;;12.46;95.45
63097;BME280;49185;42.320;23.198;2022-07-15T01:04:24;94823.63;;;12.58;93.56
63097;BME280;49185;42.320;23.198;2022-07-15T01:06:52;94814.66;;;12.68;92.74
63097;BME280;49185;42.320;23.198;2022-07-15T01:09:17;94824.16;;;12.76;91.89
63097;BME280;49185;42.320;23.198;2022-07-15T01:11:43;94815.72;;;12.74;91.52
63097;BME280;49185;42.320;23.198;2022-07-15T01:14:08;94817.78;;;12.93;90.60
63097;BME280;49185;42.320;23.198;2022-07-15T01:16:34;94824.44;;;13.15;88.18
63097;BME280;49185;42.320;23.198;2022-07-15T01:18:59;94824.16;;;13.06;88.90
63097;BME280;49185;42.320;23.198;2022-07-15T01:21:25;94815.16;;;12.90;89.83
63097;BME280;49185;42.320;23.198;2022-07-15T01:23:50;94818.00;;;12.75;90.70
63097;BME280;49185;42.320;23.198;2022-07-15T01:26:16;94821.56;;;12.99;89.97
63097;BME280;49185;42.320;23.198;2022-07-15T01:28:42;94817.41;;;12.91;90.21
63097;BME280;49185;42.320;23.198;2022-07-15T01:31:08;94818.94;;;12.92;89.88
63097;BME280;49185;42.320;23.198;2022-07-15T01:33:35;94815.47;;;12.65;91.49
63097;BME280;49185;42.320;23.198;2022-07-15T01:36:01;94811.59;;;12.35;93.81
63097;BME280;49185;42.320;23.198;2022-07-15T01:38:28;94807.56;;;12.16;95.58
63097;BME280;49185;42.320;23.198;2022-07-15T01:40:54;94807.47;;;12.24;95.03
63097;BME280;49185;42.320;23.198;2022-07-15T01:43:20;94811.63;;;12.62;91.88
63097;BME280;49185;42.320;23.198;2022-07-15T01:45:45;94807.19;;;12.48;92.53
63097;BME280;49185;42.320;23.198;2022-07-15T01:48:12;94810.69;;;12.45;92.96
63097;BME280;49185;42.320;23.198;2022-07-15T01:50:37;94810.69;;;12.45;92.43
63097;BME280;49185;42.320;23.198;2022-07-15T01:53:03;94807.97;;;12.45;92.03
63097;BME280;49185;42.320;23.198;2022-07-15T01:55:29;94802.22;;;12.43;91.90
63097;BME280;49185;42.320;23.198;2022-07-15T01:57:54;94804.03;;;12.54;91.21
63097;BME280;49185;42.320;23.198;2022-07-15T02:00:19;94805.25;;;12.79;89.74
63097;BME280;49185;42.320;23.198;2022-07-15T02:02:45;94801.16;;;12.68;89.89
63097;BME280;49185;42.320;23.198;2022-07-15T02:05:10;94797.94;;;12.49;90.97
63097;BME280;49185;42.320;23.198;2022-07-15T02:07:36;94791.00;;;12.48;91.06
63097;BME280;49185;42.320;23.198;2022-07-15T02:10:01;94801.78;;;12.48;91.42
63097;BME280;49185;42.320;23.198;2022-07-15T02:12:27;94799.09;;;12.48;91.66
63097;BME280;49185;42.320;23.198;2022-07-15T02:14:52;94800.53;;;12.87;89.54
63097;BME280;49185;42.320;23.198;2022-07-15T02:17:18;94802.47;;;12.86;89.52
63097;BME280;49185;42.320;23.198;2022-07-15T02:19:43;94804.78;;;12.54;91.24
63097;BME280;49185;42.320;23.198;2022-07-15T02:22:08;94806.31;;;12.21;94.91
63097;BME280;49185;42.320;23.198;2022-07-15T02:24:34;94800.09;;;12.28;96.04
63097;BME280;49185;42.320;23.198;2022-07-15T02:26:59;94798.09;;;12.66;90.63
63097;BME280;49185;42.320;23.198;2022-07-15T02:29:25;94803.53;;;12.32;92.87
63097;BME280;49185;42.320;23.198;2022-07-15T02:31:50;94797.25;;;12.08;95.51
63097;BME280;49185;42.320;23.198;2022-07-15T02:34:16;94810.50;;;11.92;98.88
63097;BME280;49185;42.320;23.198;2022-07-15T02:36:41;94800.31;;;11.65;100.00
63097;BME280;49185;42.320;23.198;2022-07-15T02:39:07;94805.06;;;11.47;100.00
63097;BME280;49185;42.320;23.198;2022-07-15T02:41:32;94804.84;;;11.75;100.00
63097;BME280;49185;42.320;23.198;2022-07-15T02:43:57;94806.06;;;11.67;100.00
63097;BME280;49185;42.320;23.198;2022-07-15T02:46:23;94806.19;;;11.53;100.00
63097;BME280;49185;42.320;23.198;2022-07-15T02:48:48;94811.63;;;11.94;100.00
63097;BME280;49185;42.320;23.198;2022-07-15T02:51:14;94807.22;;;12.11;100.00
63097;BME280;49185;42.320;23.198;2022-07-15T02:53:40;94808.81;;;12.05;100.00
63097;BME280;49185;42.320;23.198;2022-07-15T02:56:06;94809.84;;;12.18;99.63
63097;BME280;49185;42.320;23.198;2022-07-15T02:58:31;94806.81;;;11.71;100.00
63097;BME280;49185;42.320;23.198;2022-07-15T03:00:59;94811.69;;;11.39;100.00
63097;BME280;49185;42.320;23.198;2022-07-15T03:03:25;94804.44;;;11.29;100.00
63097;BME280;49185;42.320;23.198;2022-07-15T03:05:50;94804.13;;;11.23;100.00
63097;BME280;49185;42.320;23.198;2022-07-15T03:08:16;94796.75;;;11.31;100.00
63097;BME280;49185;42.320;23.198;2022-07-15T03:10:42;94802.47;;;11.36;100.00
63097;BME280;49185;42.320;23.198;2022-07-15T03:13:08;94800.94;;;11.35;100.00
63097;BME280;49185;42.320;23.198;2022-07-15T03:15:34;94796.34;;;11.36;100.00
63097;BME280;49185;42.320;23.198;2022-07-15T03:17:59;94795.13;;;11.44;100.00
63097;BME280;49185;42.320;23.198;2022-07-15T03:20:25;94798.53;;;11.48;100.00
63097;BME280;49185;42.320;23.198;2022-07-15T03:22:51;94794.53;;;11.67;100.00
63097;BME280;49185;42.320;23.198;2022-07-15T03:25:16;94798.72;;;11.71;100.00
63097;BME280;49185;42.320;23.198;2022-07-15T03:27:42;94795.75;;;11.62;100.00
63097;BME280;49185;42.320;23.198;2022-07-15T03:30:07;94798.81;;;11.64;100.00
63097;BME280;49185;42.320;23.198;2022-07-15T03:32:33;94789.88;;;11.71;100.00
63097;BME280;49185;42.320;23.198;2022-07-15T03:34:58;94800.94;;;11.83;100.00
63097;BME280;49185;42.320;23.198;2022-07-15T03:37:24;94791.00;;;11.77;100.00
63097;BME280;49185;42.320;23.198;2022-07-15T03:39:49;94790.63;;;11.78;100.00
63097;BME280;49185;42.320;23.198;2022-07-15T03:42:15;94790.94;;;11.84;100.00
63097;BME280;49185;42.320;23.198;2022-07-15T03:44:41;94790.75;;;12.02;100.00
63097;BME280;49185;42.320;23.198;2022-07-15T03:47:06;94790.31;;;12.07;100.00
63097;BME280;49185;42.320;23.198;2022-07-15T03:49:31;94784.81;;;12.18;100.00
63097;BME280;49185;42.320;23.198;2022-07-15T03:51:57;94792.56;;;12.46;97.72
63097;BME280;49185;42.320;23.198;2022-07-15T03:54:23;94789.69;;;12.60;96.87
63097;BME280;49185;42.320;23.198;2022-07-15T03:56:48;94792.91;;;12.78;95.41
63097;BME280;49185;42.320;23.198;2022-07-15T03:59:14;94794.94;;;13.01;94.22
63097;BME280;49185;42.320;23.198;2022-07-15T04:01:40;94796.78;;;13.35;91.93
63097;BME280;49185;42.320;23.198;2022-07-15T04:04:06;94806.06;;;13.57;90.08
63097;BME280;49185;42.320;23.198;2022-07-15T04:06:31;94796.75;;;14.05;86.84
63097;BME280;49185;42.320;23.198;2022-07-15T04:08:57;94795.06;;;14.90;82.31
63097;BME280;49185;42.320;23.198;2022-07-15T04:11:22;94795.38;;;15.12;80.27
63097;BME280;49185;42.320;23.198;2022-07-15T04:13:47;94797.50;;;15.04;80.58
63097;BME280;49185;42.320;23.198;2022-07-15T04:16:14;94799.28;;;15.27;79.05
63097;BME280;49185;42.320;23.198;2022-07-15T04:18:39;94797.16;;;15.02;80.71
63097;BME280;49185;42.320;23.198;2022-07-15T04:21:05;94797.50;;;15.20;79.76
63097;BME280;49185;42.320;23.198;2022-07-15T04:23:31;94803.19;;;15.26;79.65
63097;BME280;49185;42.320;23.198;2022-07-15T04:25:57;94800.31;;;15.33;77.43
63097;BME280;49185;42.320;23.198;2022-07-15T04:28:23;94802.22;;;15.69;76.66
63097;BME280;49185;42.320;23.198;2022-07-15T04:30:49;94799.56;;;16.26;74.62
63097;BME280;49185;42.320;23.198;2022-07-15T04:33:15;94803.66;;;18.25;66.35
63097;BME280;49185;42.320;23.198;2022-07-15T04:35:41;94809.72;;;19.16;63.38
63097;BME280;49185;42.320;23.198;2022-07-15T04:38:07;94799.47;;;21.25;55.16
63097;BME280;49185;42.320;23.198;2022-07-15T04:40:33;94807.63;;;22.62;51.60
63097;BME280;49185;42.320;23.198;2022-07-15T04:42:59;94804.66;;;23.34;48.77
63097;BME280;49185;42.320;23.198;2022-07-15T04:45:28;94802.84;;;24.15;46.26
63097;BME280;49185;42.320;23.198;2022-07-15T04:47:54;94800.94;;;25.14;42.88
63097;BME280;49185;42.320;23.198;2022-07-15T04:50:20;94803.91;;;25.68;40.74
63097;BME280;49185;42.320;23.198;2022-07-15T04:52:47;94800.47;;;25.78;41.16
63097;BME280;49185;42.320;23.198;2022-07-15T04:55:13;94804.28;;;24.11;43.79
63097;BME280;49185;42.320;23.198;2022-07-15T04:57:40;94798.03;;;24.10;43.68
63097;BME280;49185;42.320;23.198;2022-07-15T05:00:06;94804.28;;;23.26;47.82
63097;BME280;49185;42.320;23.198;2022-07-15T05:02:32;94797.69;;;24.03;46.10
63097;BME280;49185;42.320;23.198;2022-07-15T05:04:58;94801.19;;;25.42;43.96
63097;BME280;49185;42.320;23.198;2022-07-15T05:07:23;94804.81;;;25.27;42.60
63097;BME280;49185;42.320;23.198;2022-07-15T05:09:49;94794.41;;;26.17;39.86
63097;BME280;49185;42.320;23.198;2022-07-15T05:12:15;94802.97;;;27.95;36.32
63097;BME280;49185;42.320;23.198;2022-07-15T05:14:40;94805.03;;;27.78;36.74
63097;BME280;49185;42.320;23.198;2022-07-15T05:17:06;94809.81;;;27.67;37.24
63097;BME280;49185;42.320;23.198;2022-07-15T05:19:31;94803.03;;;27.17;37.40
63097;BME280;49185;42.320;23.198;2022-07-15T05:21:57;94810.78;;;26.96;36.50
63097;BME280;49185;42.320;23.198;2022-07-15T05:24:22;94809.66;;;26.72;38.31
63097;BME280;49185;42.320;23.198;2022-07-15T05:26:47;94800.78;;;26.40;38.79
63097;BME280;49185;42.320;23.198;2022-07-15T05:29:13;94801.50;;;27.89;36.54
63097;BME280;49185;42.320;23.198;2022-07-15T05:31:38;94809.66;;;28.39;34.65
63097;BME280;49185;42.320;23.198;2022-07-15T05:34:04;94803.25;;;27.14;36.32
63097;BME280;49185;42.320;23.198;2022-07-15T05:36:29;94810.66;;;26.63;37.08
63097;BME280;49185;42.320;23.198;2022-07-15T05:38:55;94806.06;;;27.70;35.47
63097;BME280;49185;42.320;23.198;2022-07-15T05:41:20;94807.28;;;27.91;35.21
63097;BME280;49185;42.320;23.198;2022-07-15T05:43:46;94798.59;;;28.45;33.69
63097;BME280;49185;42.320;23.198;2022-07-15T05:46:11;94798.91;;;29.89;31.79
63097;BME280;49185;42.320;23.198;2022-07-15T05:48:37;94799.06;;;31.71;28.74
63097;BME280;49185;42.320;23.198;2022-07-15T05:51:02;94797.81;;;30.84;29.55
63097;BME280;49185;42.320;23.198;2022-07-15T05:53:28;94805.19;;;30.62;30.33
63097;BME280;49185;42.320;23.198;2022-07-15T05:55:53;94800.91;;;30.37;30.91
63097;BME280;49185;42.320;23.198;2022-07-15T05:58:19;94808.13;;;29.01;32.28
63097;BME280;49185;42.320;23.198;2022-07-15T06:00:44;94792.63;;;29.23;32.29
63097;BME280;49185;42.320;23.198;2022-07-15T06:03:10;94797.16;;;30.34;30.02
63097;BME280;49185;42.320;23.198;2022-07-15T06:05:35;94807.69;;;28.17;33.79
63097;BME280;49185;42.320;23.198;2022-07-15T06:08:01;94799.88;;;28.38;33.30
63097;BME280;49185;42.320;23.198;2022-07-15T06:10:27;94785.41;;;29.74;30.93
63097;BME280;49185;42.320;23.198;2022-07-15T06:12:53;94790.66;;;28.71;31.71
63097;BME280;49185;42.320;23.198;2022-07-15T06:15:19;94787.78;;;28.93;31.45
63097;BME280;49185;42.320;23.198;2022-07-15T06:17:45;94797.28;;;30.23;30.11
63097;BME280;49185;42.320;23.198;2022-07-15T06:20:10;94796.00;;;29.10;32.35
63097;BME280;49185;42.320;23.198;2022-07-15T06:22:36;94790.19;;;30.03;30.65
63097;BME280;49185;42.320;23.198;2022-07-15T06:25:01;94789.50;;;29.92;31.23
63097;BME280;49185;42.320;23.198;2022-07-15T06:27:29;94786.75;;;29.67;31.21
63097;BME280;49185;42.320;23.198;2022-07-15T06:29:54;94788.97;;;29.99;31.49
63097;BME280;49185;42.320;23.198;2022-07-15T06:32:20;94790.56;;;33.63;25.27
63097;BME280;49185;42.320;23.198;2022-07-15T06:34:45;94790.91;;;33.39;25.60
63097;BME280;49185;42.320;23.198;2022-07-15T06:37:11;94795.00;;;31.72;28.22
63097;BME280;49185;42.320;23.198;2022-07-15T06:39:36;94795.41;;;30.56;29.92
63097;BME280;49185;42.320;23.198;2022-07-15T06:42:02;94783.91;;;31.85;28.06
63097;BME280;49185;42.320;23.198;2022-07-15T06:44:28;94780.22;;;31.32;28.83
63097;BME280;49185;42.320;23.198;2022-07-15T06:46:55;94776.69;;;30.81;28.60
63097;BME280;49185;42.320;23.198;2022-07-15T06:49:20;94782.91;;;32.88;25.96
63097;BME280;49185;42.320;23.198;2022-07-15T06:51:46;94772.53;;;32.89;25.39
63097;BME280;49185;42.320;23.198;2022-07-15T06:54:11;94782.94;;;31.96;27.49
63097;BME280;49185;42.320;23.198;2022-07-15T06:56:37;94773.47;;;30.52;28.67
63097;BME280;49185;42.320;23.198;2022-07-15T06:59:03;94771.13;;;33.16;26.88
63097;BME280;49185;42.320;23.198;2022-07-15T07:01:29;94771.78;;;34.13;24.38
63097;BME280;49185;42.320;23.198;2022-07-15T07:03:54;94763.63;;;34.15;23.92
63097;BME280;49185;42.320;23.198;2022-07-15T07:06:20;94777.66;;;33.32;24.58
63097;BME280;49185;42.320;23.198;2022-07-15T07:08:45;94771.66;;;33.15;24.16
63097;BME280;49185;42.320;23.198;2022-07-15T07:11:11;94772.72;;;33.25;24.65
63097;BME280;49185;42.320;23.198;2022-07-15T07:13:36;94772.28;;;33.21;25.58
63097;BME280;49185;42.320;23.198;2022-07-15T07:16:01;94778.06;;;31.25;28.65
63097;BME280;49185;42.320;23.198;2022-07-15T07:18:27;94765.28;;;33.06;24.40
63097;BME280;49185;42.320;23.198;2022-07-15T07:20:52;94771.66;;;32.20;26.15
63097;BME280;49185;42.320;23.198;2022-07-15T07:23:18;94771.94;;;32.17;27.32
63097;BME280;49185;42.320;23.198;2022-07-15T07:25:43;94769.94;;;33.25;24.76
63097;BME280;49185;42.320;23.198;2022-07-15T07:28:09;94762.91;;;33.94;23.81
63097;BME280;49185;42.320;23.198;2022-07-15T07:30:34;94765.69;;;33.44;24.67
63097;BME280;49185;42.320;23.198;2022-07-15T07:33:00;94770.19;;;33.97;23.16
63097;BME280;49185;42.320;23.198;2022-07-15T07:35:25;94776.28;;;32.91;26.21
63097;BME280;49185;42.320;23.198;2022-07-15T07:37:51;94776.34;;;31.22;26.57
63097;BME280;49185;42.320;23.198;2022-07-15T07:40:16;94766.56;;;33.39;24.43
63097;BME280;49185;42.320;23.198;2022-07-15T07:42:42;94767.59;;;34.56;22.27
63097;BME280;49185;42.320;23.198;2022-07-15T07:45:08;94759.34;;;32.89;25.94
63097;BME280;49185;42.320;23.198;2022-07-15T07:47:34;94762.81;;;33.58;24.04
63097;BME280;49185;42.320;23.198;2022-07-15T07:50:00;94749.66;;;34.43;24.50
63097;BME280;49185;42.320;23.198;2022-07-15T07:52:25;94748.47;;;35.41;22.65
63097;BME280;49185;42.320;23.198;2022-07-15T07:54:50;94752.09;;;34.19;22.24
63097;BME280;49185;42.320;23.198;2022-07-15T07:57:16;94753.13;;;32.96;23.64
63097;BME280;49185;42.320;23.198;2022-07-15T07:59:42;94746.28;;;33.81;23.96
63097;BME280;49185;42.320;23.198;2022-07-15T08:02:07;94746.91;;;35.02;21.93
63097;BME280;49185;42.320;23.198;2022-07-15T08:04:33;94749.50;;;33.43;23.48
63097;BME280;49185;42.320;23.198;2022-07-15T08:06:58;94739.31;;;33.95;21.98
63097;BME280;49185;42.320;23.198;2022-07-15T08:09:23;94736.63;;;33.40;23.08
63097;BME280;49185;42.320;23.198;2022-07-15T08:11:49;94744.34;;;32.92;24.14
63097;BME280;49185;42.320;23.198;2022-07-15T08:14:14;94739.63;;;32.87;24.38
63097;BME280;49185;42.320;23.198;2022-07-15T08:16:40;94739.19;;;33.17;23.71
63097;BME280;49185;42.320;23.198;2022-07-15T08:19:05;94730.31;;;33.60;23.36
63097;BME280;49185;42.320;23.198;2022-07-15T08:21:31;94725.69;;;33.91;22.05
63097;BME280;49185;42.320;23.198;2022-07-15T08:23:56;94729.47;;;34.30;22.87
63097;BME280;49185;42.320;23.198;2022-07-15T08:26:22;94729.56;;;33.81;23.23
63097;BME280;49185;42.320;23.198;2022-07-15T08:28:47;94728.56;;;33.50;23.35
63097;BME280;49185;42.320;23.198;2022-07-15T08:31:12;94733.38;;;33.49;23.79
63097;BME280;49185;42.320;23.198;2022-07-15T08:33:38;94732.31;;;32.97;23.14
63097;BME280;49185;42.320;23.198;2022-07-15T08:36:03;94733.72;;;33.45;22.77
63097;BME280;49185;42.320;23.198;2022-07-15T08:38:29;94728.13;;;33.25;22.97
63097;BME280;49185;42.320;23.198;2022-07-15T08:40:55;94725.47;;;33.40;24.23
63097;BME280;49185;42.320;23.198;2022-07-15T08:43:21;94724.25;;;33.07;23.80
63097;BME280;49185;42.320;23.198;2022-07-15T08:45:46;94711.38;;;33.04;26.28
63097;BME280;49185;42.320;23.198;2022-07-15T08:48:12;94719.38;;;34.27;25.05
63097;BME280;49185;42.320;23.198;2022-07-15T08:50:41;94714.66;;;33.57;23.00
63097;BME280;49185;42.320;23.198;2022-07-15T08:53:07;94714.84;;;33.18;24.69
63097;BME280;49185;42.320;23.198;2022-07-15T08:55:32;94721.81;;;33.45;24.36
63097;BME280;49185;42.320;23.198;2022-07-15T08:57:58;94709.38;;;33.95;22.30
63097;BME280;49185;42.320;23.198;2022-07-15T09:00:25;94715.53;;;33.10;23.79
63097;BME280;49185;42.320;23.198;2022-07-15T09:02:50;94712.75;;;33.10;23.64
63097;BME280;49185;42.320;23.198;2022-07-15T09:05:29;94710.22;;;33.83;23.02
63097;BME280;49185;42.320;23.198;2022-07-15T09:08:00;94706.59;;;33.46;23.74
63097;BME280;49185;42.320;23.198;2022-07-15T09:15:59;94693.03;;;33.08;25.41
63097;BME280;49185;42.320;23.198;2022-07-15T09:18:31;94693.84;;;34.15;21.68
63097;BME280;49185;42.320;23.198;2022-07-15T09:20:58;94695.56;;;34.26;23.19
63097;BME280;49185;42.320;23.198;2022-07-15T09:23:26;94691.41;;;32.92;24.58
63097;BME280;49185;42.320;23.198;2022-07-15T09:25:51;94686.25;;;33.87;22.35
63097;BME280;49185;42.320;23.198;2022-07-15T09:28:17;94680.69;;;33.38;24.79
63097;BME280;49185;42.320;23.198;2022-07-15T09:30:45;94684.97;;;33.39;22.68
63097;BME280;49185;42.320;23.198;2022-07-15T09:33:13;94680.97;;;33.27;23.37
63097;BME280;49185;42.320;23.198;2022-07-15T09:35:39;94685.56;;;33.24;22.94
63097;BME280;49185;42.320;23.198;2022-07-15T09:38:04;94684.81;;;32.69;24.51
63097;BME280;49185;42.320;23.198;2022-07-15T09:40:30;94677.66;;;32.39;25.95
63097;BME280;49185;42.320;23.198;2022-07-15T09:43:05;94677.72;;;32.81;24.27
63097;BME280;49185;42.320;23.198;2022-07-15T09:45:34;94669.66;;;32.57;24.50
63097;BME280;49185;42.320;23.198;2022-07-15T09:48:10;94671.34;;;32.73;24.92
63097;BME280;49185;42.320;23.198;2022-07-15T09:50:38;94668.94;;;32.56;25.29
63097;BME280;49185;42.320;23.198;2022-07-15T09:53:07;94673.06;;;32.63;24.59
63097;BME280;49185;42.320;23.198;2022-07-15T09:55:35;94668.19;;;33.31;25.38
63097;BME280;49185;42.320;23.198;2022-07-15T09:58:01;94664.97;;;33.48;24.27
63097;BME280;49185;42.320;23.198;2022-07-15T10:00:27;94662.59;;;33.10;25.77
63097;BME280;49185;42.320;23.198;2022-07-15T10:02:52;94662.06;;;31.97;25.35
63097;BME280;49185;42.320;23.198;2022-07-15T10:05:18;94654.31;;;33.96;23.84
63097;BME280;49185;42.320;23.198;2022-07-15T10:07:44;94661.78;;;34.44;22.28
63097;BME280;49185;42.320;23.198;2022-07-15T10:10:12;94653.38;;;34.29;22.90
63097;BME280;49185;42.320;23.198;2022-07-15T10:27:45;94636.03;;;33.09;25.13
63097;BME280;49185;42.320;23.198;2022-07-15T10:30:19;94624.03;;;33.43;25.21
63097;BME280;49185;42.320;23.198;2022-07-15T10:33:17;94634.53;;;34.81;22.08
63097;BME280;49185;42.320;23.198;2022-07-15T10:35:53;94630.56;;;34.69;22.72
63097;BME280;49185;42.320;23.198;2022-07-15T10:38:35;94625.16;;;34.56;23.71
63097;BME280;49185;42.320;23.198;2022-07-15T10:41:08;94628.75;;;34.20;23.04
63097;BME280;49185;42.320;23.198;2022-07-15T10:43:42;94630.41;;;34.74;23.38
63097;BME280;49185;42.320;23.198;2022-07-15T10:46:28;94627.78;;;33.45;24.46
63097;BME280;49185;42.320;23.198;2022-07-15T10:56:45;94625.00;;;33.45;25.05
63097;BME280;49185;42.320;23.198;2022-07-15T11:01:43;94617.47;;;33.61;24.40
63097;BME280;49185;42.320;23.198;2022-07-15T11:04:16;94616.09;;;34.78;22.95
63097;BME280;49185;42.320;23.198;2022-07-15T11:09:55;94607.84;;;37.24;20.94
63097;BME280;49185;42.320;23.198;2022-07-15T11:17:43;94613.84;;;34.84;22.25
63097;BME280;49185;42.320;23.198;2022-07-15T11:20:15;94614.25;;;35.03;22.40
63097;BME280;49185;42.320;23.198;2022-07-15T11:22:44;94609.75;;;36.24;21.68
63097;BME280;49185;42.320;23.198;2022-07-15T11:25:34;94603.41;;;37.13;20.95
63097;BME280;49185;42.320;23.198;2022-07-15T11:33:03;94602.13;;;34.27;24.65
63097;BME280;49185;42.320;23.198;2022-07-15T11:35:29;94593.06;;;35.94;21.83
63097;BME280;49185;42.320;23.198;2022-07-15T11:38:01;94593.59;;;36.47;21.90
63097;BME280;49185;42.320;23.198;2022-07-15T11:40:27;94590.94;;;36.09;22.86
63097;BME280;49185;42.320;23.198;2022-07-15T11:42:52;94603.81;;;34.89;24.94
63097;BME280;49185;42.320;23.198;2022-07-15T11:45:32;94583.69;;;37.04;22.14
63097;BME280;49185;42.320;23.198;2022-07-15T11:47:59;94589.16;;;37.44;21.20
63097;BME280;49185;42.320;23.198;2022-07-15T11:50:24;94595.75;;;35.76;23.43
63097;BME280;49185;42.320;23.198;2022-07-15T11:52:55;94593.50;;;33.09;25.33
63097;BME280;49185;42.320;23.198;2022-07-15T11:55:21;94591.94;;;32.12;27.00
63097;BME280;49185;42.320;23.198;2022-07-15T11:57:46;94592.69;;;32.25;26.98
63097;BME280;49185;42.320;23.198;2022-07-15T12:00:12;94593.78;;;32.09;26.94
63097;BME280;49185;42.320;23.198;2022-07-15T12:02:38;94593.63;;;32.28;28.23
63097;BME280;49185;42.320;23.198;2022-07-15T12:05:06;94598.31;;;31.59;27.00
63097;BME280;49185;42.320;23.198;2022-07-15T12:07:45;94589.72;;;32.44;27.02
63097;BME280;49185;42.320;23.198;2022-07-15T12:10:13;94590.56;;;35.12;22.90
63097;BME280;49185;42.320;23.198;2022-07-15T12:12:52;94580.69;;;37.27;20.43
63097;BME280;49185;42.320;23.198;2022-07-15T12:15:18;94589.19;;;38.40;18.89
63097;BME280;49185;42.320;23.198;2022-07-15T12:17:44;94577.69;;;38.01;21.18
63097;BME280;49185;42.320;23.198;2022-07-15T12:20:10;94584.41;;;35.44;23.24
63097;BME280;49185;42.320;23.198;2022-07-15T12:22:35;94586.03;;;33.32;26.39
63097;BME280;49185;42.320;23.198;2022-07-15T12:25:01;94573.47;;;32.01;27.86
63097;BME280;49185;42.320;23.198;2022-07-15T12:27:36;94585.94;;;31.73;29.31
63097;BME280;49185;42.320;23.198;2022-07-15T12:30:07;94584.53;;;31.27;28.30
63097;BME280;49185;42.320;23.198;2022-07-15T12:32:33;94575.91;;;33.22;25.85
63097;BME280;49185;42.320;23.198;2022-07-15T12:35:02;94581.25;;;36.03;22.19
63097;BME280;49185;42.320;23.198;2022-07-15T12:37:47;94571.72;;;37.03;21.59
63097;BME280;49185;42.320;23.198;2022-07-15T12:40:14;94566.56;;;37.59;20.32
63097;BME280;49185;42.320;23.198;2022-07-15T12:42:50;94576.72;;;36.88;20.90
63097;BME280;49185;42.320;23.198;2022-07-15T12:45:24;94576.56;;;35.58;22.26
63097;BME280;49185;42.320;23.198;2022-07-15T12:48:07;94587.19;;;34.09;23.19
63097;BME280;49185;42.320;23.198;2022-07-15T12:50:34;94589.41;;;32.68;27.07
63097;BME280;49185;42.320;23.198;2022-07-15T12:53:01;94591.69;;;31.89;28.02
63097;BME280;49185;42.320;23.198;2022-07-15T12:55:33;94593.19;;;31.24;29.50
63097;BME280;49185;42.320;23.198;2022-07-15T12:58:10;94595.78;;;30.90;29.14
63097;BME280;49185;42.320;23.198;2022-07-15T13:00:37;94586.84;;;30.65;30.24
63097;BME280;49185;42.320;23.198;2022-07-15T13:05:44;94593.50;;;30.43;31.69
63097;BME280;49185;42.320;23.198;2022-07-15T13:08:21;94590.94;;;31.22;30.50
63097;BME280;49185;42.320;23.198;2022-07-15T13:10:49;94590.41;;;31.37;29.80
63097;BME280;49185;42.320;23.198;2022-07-15T13:13:18;94581.53;;;31.25;31.34
63097;BME280;49185;42.320;23.198;2022-07-15T13:15:45;94583.25;;;31.41;29.67
63097;BME280;49185;42.320;23.198;2022-07-15T13:18:11;94580.91;;;31.59;28.13
63097;BME280;49185;42.320;23.198;2022-07-15T13:20:37;94580.28;;;32.13;29.62
63097;BME280;49185;42.320;23.198;2022-07-15T13:23:03;94586.78;;;31.82;27.89
63097;BME280;49185;42.320;23.198;2022-07-15T13:25:30;94575.75;;;31.63;27.10
63097;BME280;49185;42.320;23.198;2022-07-15T13:27:56;94590.19;;;31.22;27.24
63097;BME280;49185;42.320;23.198;2022-07-15T13:30:22;94584.06;;;30.97;27.17
63097;BME280;49185;42.320;23.198;2022-07-15T13:32:47;94587.72;;;30.60;28.21
63097;BME280;49185;42.320;23.198;2022-07-15T13:35:13;94588.84;;;30.32;29.08